Time;durP1;ratioP1;P1;durP2;ratioP2;P2;SDS_P1;SDS_P2;PMS_P1;PMS_P2;Temp;Humidity;BMP_temperature;BMP_pressure;BME280_temperature;BME280_humidity;BME280_pressure;Samples;Min_cycle;Max_cycle;Signal;HPM_P1;HPM_P2
2023/07/24 00:00:11;;;;;;;6.10;3.87;;;19.10;1.00;;;;;;4972783;28;20245;-82
2023/07/24 00:02:36;;;;;;;7.70;4.27;;;19.00;1.00;;;;;;4992847;28;20206;-82
2023/07/24 00:05:02;;;;;;;7.00;4.30;;;19.00;1.00;;;;;;4993070;28;20437;-82
2023/07/24 00:07:27;;;;;;;7.83;4.07;;;18.90;1.00;;;;;;4966816;28;20265;-83
2023/07/24 00:09:55;;;;;;;6.43;4.20;;;18.90;1.00;;;;;;4989712;28;20233;-82
2023/07/24 00:12:20;;;;;;;8.07;3.83;;;18.90;1.00;;;;;;4977751;28;20212;-82
2023/07/24 00:14:46;;;;;;;6.83;4.20;;;18.80;1.00;;;;;;4987446;28;20439;-82
2023/07/24 00:17:11;;;;;;;6.67;4.27;;;18.80;1.00;;;;;;4979831;28;20207;-82
2023/07/24 00:19:37;;;;;;;6.53;4.37;;;18.80;1.00;;;;;;4997029;28;20178;-82
2023/07/24 00:22:03;;;;;;;11.53;4.57;;;18.80;1.00;;;;;;4994514;28;20280;-82
2023/07/24 00:24:31;;;;;;;5.57;4.10;;;18.70;1.00;;;;;;4972579;28;20341;-82
2023/07/24 00:26:56;;;;;;;9.63;4.70;;;18.70;1.00;;;;;;4984176;28;20288;-82
2023/07/24 00:29:22;;;;;;;8.10;4.40;;;18.70;1.00;;;;;;4991331;28;21087;-83
2023/07/24 00:31:47;;;;;;;7.47;4.10;;;18.70;1.00;;;;;;4995439;28;20190;-82
2023/07/24 00:34:13;;;;;;;5.50;4.50;;;18.70;1.00;;;;;;4973474;28;20258;-82
2023/07/24 00:36:39;;;;;;;5.90;4.73;;;18.70;1.00;;;;;;4985083;28;20213;-83
2023/07/24 00:39:04;;;;;;;5.30;3.70;;;18.70;1.00;;;;;;4985775;28;20447;-82
2023/07/24 00:41:30;;;;;;;7.57;4.80;;;18.80;1.00;;;;;;4975117;28;20544;-82
2023/07/24 00:43:55;;;;;;;5.63;4.00;;;18.80;1.00;;;;;;4984983;28;20230;-83
2023/07/24 00:46:21;;;;;;;4.50;4.00;;;18.80;1.00;;;;;;4992087;28;20697;-83
2023/07/24 00:48:47;;;;;;;8.30;4.83;;;18.80;1.00;;;;;;4988572;28;20191;-82
2023/07/24 00:51:13;;;;;;;6.43;4.70;;;18.90;1.00;;;;;;4980991;28;20454;-82
2023/07/24 00:53:38;;;;;;;5.60;4.37;;;18.90;1.00;;;;;;4994130;28;20199;-82
2023/07/24 00:56:05;;;;;;;5.90;4.00;;;18.90;1.00;;;;;;4973783;28;20228;-81
2023/07/24 00:58:30;;;;;;;10.37;4.97;;;18.90;1.00;;;;;;4983738;28;20269;-82
2023/07/24 01:00:56;;;;;;;7.50;4.70;;;18.90;1.00;;;;;;4968425;28;20464;-82
2023/07/24 01:03:32;;;;;;;5.20;4.33;;;18.90;1.00;;;;;;4975535;28;21561;-83
2023/07/24 01:05:58;;;;;;;7.27;4.80;;;18.90;1.00;;;;;;4989542;28;20239;-81
2023/07/24 01:08:23;;;;;;;9.03;4.67;;;18.80;1.00;;;;;;4996990;28;20931;-82
2023/07/24 01:10:49;;;;;;;6.50;4.90;;;18.80;1.00;;;;;;4971978;28;20301;-82
2023/07/24 01:13:22;;;;;;;5.63;4.30;;;18.80;1.00;;;;;;4995896;28;20269;-82
2023/07/24 01:15:50;;;;;;;9.10;4.87;;;18.80;1.00;;;;;;4983381;28;20188;-82
2023/07/24 01:18:17;;;;;;;11.23;5.40;;;18.80;1.00;;;;;;4970487;28;20456;-82
2023/07/24 01:20:50;;;;;;;8.63;5.10;;;18.80;1.00;;;;;;4985612;28;20472;-82
2023/07/24 01:23:44;;;;;;;9.93;5.60;;;18.70;1.00;;;;;;4989651;28;20470;-82
2023/07/24 01:26:10;;;;;;;6.80;4.80;;;18.70;1.00;;;;;;4973058;28;20449;-82
2023/07/24 01:28:36;;;;;;;8.67;5.33;;;18.60;1.00;;;;;;4979051;28;20456;-82
2023/07/24 01:31:01;;;;;;;8.10;5.30;;;18.60;1.00;;;;;;4976685;28;20463;-82
2023/07/24 01:33:27;;;;;;;6.00;5.10;;;18.60;1.00;;;;;;4988916;28;20562;-82
2023/07/24 01:35:58;;;;;;;6.20;4.90;;;18.60;1.00;;;;;;4985607;28;20245;-82
2023/07/24 01:38:25;;;;;;;5.67;4.43;;;18.50;1.00;;;;;;4984396;28;20532;-83
2023/07/24 01:40:53;;;;;;;6.97;4.93;;;18.50;1.00;;;;;;4982254;28;20435;-82
2023/07/24 01:43:19;;;;;;;8.77;5.90;;;18.60;1.00;;;;;;4976679;28;20959;-83
2023/07/24 01:45:44;;;;;;;9.53;4.90;;;18.60;1.00;;;;;;4972462;28;20430;-82
2023/07/24 01:48:10;;;;;;;9.60;5.43;;;18.60;1.00;;;;;;4987923;28;20208;-82
2023/07/24 01:50:35;;;;;;;7.23;4.83;;;18.60;1.00;;;;;;4981893;28;20199;-82
2023/07/24 01:53:01;;;;;;;14.80;5.77;;;18.60;1.00;;;;;;4987621;28;20677;-82
2023/07/24 01:55:26;;;;;;;8.80;4.70;;;18.60;1.00;;;;;;4980318;28;20213;-82
2023/07/24 01:57:52;;;;;;;10.50;4.70;;;18.70;1.00;;;;;;4967451;28;20235;-82
2023/07/24 02:00:18;;;;;;;11.03;5.23;;;18.70;1.00;;;;;;4982991;28;20223;-82
2023/07/24 02:02:43;;;;;;;9.17;4.60;;;18.70;1.00;;;;;;4995781;28;20197;-83
2023/07/24 02:05:09;;;;;;;9.00;4.50;;;18.80;1.00;;;;;;4997244;28;20197;-82
2023/07/24 02:07:34;;;;;;;7.70;4.97;;;18.80;1.00;;;;;;4968042;28;20736;-83
2023/07/24 02:10:00;;;;;;;10.00;5.67;;;18.90;1.00;;;;;;4999336;28;20244;-83
2023/07/24 02:12:26;;;;;;;12.03;4.70;;;18.90;1.00;;;;;;4971703;28;20246;-83
2023/07/24 02:14:52;;;;;;;11.10;4.77;;;19.00;1.00;;;;;;4978603;28;20186;-82
2023/07/24 02:17:18;;;;;;;7.40;4.57;;;19.00;1.00;;;;;;4989297;28;20205;-82
2023/07/24 02:19:44;;;;;;;8.57;5.47;;;19.00;1.00;;;;;;5000705;28;20445;-82
2023/07/24 02:22:09;;;;;;;6.60;4.87;;;19.10;1.00;;;;;;5005669;28;20432;-82
2023/07/24 02:24:35;;;;;;;14.00;6.23;;;19.10;1.00;;;;;;5005470;28;20460;-82
2023/07/24 02:27:01;;;;;;;21.07;5.40;;;19.20;1.00;;;;;;4996532;28;20266;-82
2023/07/24 02:29:26;;;;;;;17.13;6.77;;;19.20;1.00;;;;;;5004249;28;20187;-82
2023/07/24 02:31:53;;;;;;;11.10;5.77;;;19.10;1.00;;;;;;4998151;28;20753;-82
2023/07/24 02:34:24;;;;;;;14.67;6.10;;;19.00;1.00;;;;;;5001477;28;20200;-81
2023/07/24 02:36:49;;;;;;;12.93;6.10;;;19.00;1.00;;;;;;4994476;28;20487;-81
2023/07/24 02:39:15;;;;;;;9.13;6.03;;;18.90;1.00;;;;;;4984311;28;20434;-81
2023/07/24 02:41:40;;;;;;;10.43;6.47;;;18.90;1.00;;;;;;4969779;28;20196;-80
2023/07/24 02:44:06;;;;;;;8.40;6.10;;;18.80;1.00;;;;;;4991838;28;20224;-80
2023/07/24 02:46:31;;;;;;;11.57;6.23;;;18.80;1.00;;;;;;4990533;28;20228;-80
2023/07/24 02:48:57;;;;;;;10.10;6.20;;;18.80;1.00;;;;;;4978760;28;20192;-80
2023/07/24 02:51:22;;;;;;;10.30;6.40;;;18.80;1.00;;;;;;4985360;28;20208;-80
2023/07/24 02:53:48;;;;;;;15.43;6.33;;;18.80;1.00;;;;;;4992638;28;20195;-80
2023/07/24 02:56:13;;;;;;;8.60;6.83;;;18.80;1.00;;;;;;5007638;28;20239;-81
2023/07/24 02:58:39;;;;;;;11.40;6.67;;;18.80;1.00;;;;;;4970113;28;20638;-81
2023/07/24 03:01:06;;;;;;;15.73;6.90;;;18.80;1.00;;;;;;4995763;28;20194;-82
2023/07/24 03:03:32;;;;;;;10.17;6.40;;;18.80;1.00;;;;;;4973505;28;20188;-81
2023/07/24 03:05:58;;;;;;;12.10;6.60;;;18.80;1.00;;;;;;4973904;28;20463;-81
2023/07/24 03:08:24;;;;;;;13.00;6.57;;;18.80;1.00;;;;;;4999655;28;20459;-80
2023/07/24 03:10:49;;;;;;;10.33;6.87;;;18.70;1.00;;;;;;4974735;28;20212;-81
2023/07/24 03:13:15;;;;;;;9.70;7.20;;;18.70;1.00;;;;;;4990769;28;20200;-81
2023/07/24 03:15:40;;;;;;;15.50;6.50;;;18.70;1.00;;;;;;4993537;28;20190;-81
2023/07/24 03:18:06;;;;;;;13.73;7.23;;;18.70;1.00;;;;;;4997146;28;20207;-81
2023/07/24 03:20:32;;;;;;;15.80;7.40;;;18.60;1.00;;;;;;4999910;28;20303;-81
2023/07/24 03:22:57;;;;;;;9.40;6.30;;;18.60;1.00;;;;;;4993192;28;20203;-82
2023/07/24 03:25:23;;;;;;;9.50;6.10;;;18.60;1.00;;;;;;4972538;28;20191;-81
2023/07/24 03:27:48;;;;;;;8.73;5.70;;;18.60;1.00;;;;;;4994027;28;20597;-82
2023/07/24 03:30:14;;;;;;;13.60;6.17;;;18.60;1.00;;;;;;4993928;28;20258;-81
2023/07/24 03:32:40;;;;;;;12.53;6.20;;;18.70;1.00;;;;;;4991858;28;20616;-81
2023/07/24 03:35:06;;;;;;;9.00;6.07;;;18.70;1.00;;;;;;4991914;28;20477;-82
2023/07/24 03:37:33;;;;;;;9.67;7.47;;;18.70;1.00;;;;;;5004492;28;20214;-80
2023/07/24 03:39:59;;;;;;;12.70;6.47;;;18.70;1.00;;;;;;4976984;28;20494;-82
2023/07/24 03:42:30;;;;;;;12.63;6.00;;;18.70;1.00;;;;;;4996083;28;20908;-82
2023/07/24 03:44:57;;;;;;;9.53;5.67;;;18.70;1.00;;;;;;4988205;28;20188;-82
2023/07/24 03:47:23;;;;;;;10.33;5.93;;;18.80;1.00;;;;;;4990728;28;20477;-79
2023/07/24 03:49:48;;;;;;;9.10;5.90;;;18.80;1.00;;;;;;4997581;28;20459;-81
2023/07/24 03:52:14;;;;;;;11.93;6.43;;;18.80;1.00;;;;;;4969147;28;20442;-80
2023/07/24 03:54:39;;;;;;;12.37;6.40;;;18.80;1.00;;;;;;4997636;28;20688;-81
2023/07/24 03:57:05;;;;;;;11.43;5.27;;;18.80;1.00;;;;;;4990767;28;20751;-81
2023/07/24 03:59:31;;;;;;;10.90;5.90;;;18.80;1.00;;;;;;4978370;28;20198;-82
2023/07/24 04:01:57;;;;;;;8.90;5.00;;;18.80;1.00;;;;;;4972660;28;20272;-81
2023/07/24 04:04:23;;;;;;;6.93;5.90;;;18.90;1.00;;;;;;4993824;28;20442;-81
2023/07/24 04:06:48;;;;;;;9.73;5.53;;;18.90;1.00;;;;;;4981090;28;20469;-81
2023/07/24 04:09:14;;;;;;;8.83;6.37;;;18.90;1.00;;;;;;4989680;28;20193;-82
2023/07/24 04:11:40;;;;;;;9.87;5.20;;;18.90;1.00;;;;;;4995783;28;20333;-81
2023/07/24 04:14:06;;;;;;;9.97;6.17;;;18.90;1.00;;;;;;4987635;28;20966;-82
2023/07/24 04:16:32;;;;;;;10.43;5.87;;;18.90;1.00;;;;;;4979955;28;20465;-81
2023/07/24 04:18:57;;;;;;;8.40;5.80;;;19.00;1.00;;;;;;4995851;28;20183;-82
2023/07/24 04:21:23;;;;;;;10.60;5.80;;;19.00;1.00;;;;;;4979563;28;20330;-82
2023/07/24 04:23:48;;;;;;;10.20;6.10;;;19.00;1.00;;;;;;4974636;28;20341;-81
2023/07/24 04:26:14;;;;;;;12.80;7.03;;;19.00;1.00;;;;;;4969855;28;20807;-82
2023/07/24 04:28:39;;;;;;;9.63;6.23;;;19.00;1.00;;;;;;4980796;28;20205;-82
2023/07/24 04:31:05;;;;;;;10.13;6.37;;;19.00;1.00;;;;;;4983170;28;20215;-82
2023/07/24 04:33:30;;;;;;;8.50;5.83;;;19.00;1.00;;;;;;4967900;28;20201;-82
2023/07/24 04:35:56;;;;;;;8.97;6.07;;;19.00;1.00;;;;;;4981903;28;20682;-81
2023/07/24 04:38:22;;;;;;;8.87;6.03;;;19.00;1.00;;;;;;4991571;28;20707;-82
2023/07/24 04:40:47;;;;;;;11.53;6.53;;;19.00;1.00;;;;;;4987606;28;20191;-82
2023/07/24 04:43:13;;;;;;;13.40;6.70;;;19.00;1.00;;;;;;4986017;28;20440;-82
2023/07/24 04:45:38;;;;;;;8.53;6.30;;;19.00;1.00;;;;;;4987294;28;20219;-82
2023/07/24 04:48:04;;;;;;;9.53;6.50;;;19.00;1.00;;;;;;4984924;28;20212;-82
2023/07/24 04:50:30;;;;;;;12.20;6.77;;;19.00;1.00;;;;;;4985038;28;20614;-82
2023/07/24 04:52:56;;;;;;;10.03;7.03;;;19.00;1.00;;;;;;4994265;28;20442;-84
2023/07/24 04:55:22;;;;;;;7.93;5.70;;;19.10;1.00;;;;;;4994478;28;20190;-82
2023/07/24 04:57:48;;;;;;;10.40;5.53;;;19.20;1.00;;;;;;4993003;28;20711;-82
2023/07/24 05:00:14;;;;;;;7.40;5.83;;;19.30;1.00;;;;;;4979878;28;20437;-81
2023/07/24 05:02:39;;;;;;;10.57;5.50;;;19.40;1.00;;;;;;4998926;28;20832;-82
2023/07/24 05:05:05;;;;;;;7.27;5.40;;;19.50;1.00;;;;;;4970478;28;20427;-82
2023/07/24 05:07:31;;;;;;;9.33;5.93;;;19.70;1.00;;;;;;4993724;28;20306;-82
2023/07/24 05:09:56;;;;;;;9.93;5.60;;;19.80;1.00;;;;;;4984322;28;20485;-82
2023/07/24 05:12:22;;;;;;;10.90;6.13;;;19.90;1.00;;;;;;4983048;28;20202;-82
2023/07/24 05:14:48;;;;;;;11.60;6.30;;;19.90;99.90;;;;;;4993736;28;20199;-83
2023/07/24 05:17:13;;;;;;;10.40;6.23;;;19.90;99.90;;;;;;4995130;28;20266;-83
2023/07/24 05:19:39;;;;;;;12.53;6.63;;;19.90;99.90;;;;;;4983194;28;20268;-83
2023/07/24 05:22:04;;;;;;;8.30;5.67;;;19.90;99.90;;;;;;4976456;28;20190;-82
2023/07/24 05:24:30;;;;;;;9.40;6.10;;;19.90;99.90;;;;;;4979536;28;20219;-82
2023/07/24 05:26:55;;;;;;;8.20;5.80;;;19.90;99.90;;;;;;4975840;28;20199;-83
2023/07/24 05:29:21;;;;;;;7.83;4.90;;;20.10;99.90;;;;;;4985471;28;20207;-83
2023/07/24 05:31:47;;;;;;;9.30;6.30;;;20.10;99.90;;;;;;5000493;28;20241;-82
2023/07/24 05:34:13;;;;;;;7.17;5.37;;;20.10;99.90;;;;;;4991690;28;20414;-82
2023/07/24 05:36:39;;;;;;;8.10;5.20;;;20.10;46.50;;;;;;4990791;28;20560;-82
2023/07/24 05:39:05;;;;;;;8.60;5.00;;;20.20;1.00;;;;;;4987596;28;20210;-82
2023/07/24 05:41:30;;;;;;;7.53;5.07;;;20.50;1.00;;;;;;4995826;28;20992;-83
2023/07/24 05:43:56;;;;;;;6.90;4.57;;;20.70;1.00;;;;;;4998033;28;20218;-82
2023/07/24 05:46:22;;;;;;;11.77;5.60;;;20.60;1.00;;;;;;4988278;28;20223;-83
2023/07/24 05:48:48;;;;;;;7.83;4.70;;;20.60;8.60;;;;;;4977995;28;20193;-82
2023/07/24 05:51:13;;;;;;;6.60;4.30;;;20.70;99.90;;;;;;4982673;28;20973;-83
2023/07/24 05:53:39;;;;;;;6.63;4.10;;;21.00;99.90;;;;;;4991578;28;20295;-83
2023/07/24 05:56:04;;;;;;;5.43;4.20;;;21.50;1.00;;;;;;4981343;28;20191;-83
2023/07/24 05:58:30;;;;;;;5.40;4.13;;;22.00;99.90;;;;;;4980236;28;20194;-83
2023/07/24 06:00:55;;;;;;;6.00;4.53;;;22.20;99.90;;;;;;4981903;28;20191;-81
2023/07/24 06:03:22;;;;;;;4.63;3.70;;;22.20;1.00;;;;;;4963919;28;20180;-82
2023/07/24 06:05:52;;;;;;;6.97;4.00;;;22.30;99.90;;;;;;4976358;28;20197;-82
2023/07/24 06:08:18;;;;;;;6.80;4.27;;;22.80;22.60;;;;;;4971244;28;20423;-82
2023/07/24 06:10:45;;;;;;;4.73;3.73;;;23.40;99.90;;;;;;4990472;28;20469;-83
2023/07/24 06:13:10;;;;;;;5.53;3.20;;;23.50;99.90;;;;;;4975334;28;20182;-83
2023/07/24 06:15:36;;;;;;;3.83;2.87;;;23.30;99.90;;;;;;4983971;28;20528;-82
2023/07/24 06:18:01;;;;;;;4.83;3.50;;;23.30;99.90;;;;;;4965563;28;20210;-83
2023/07/24 06:20:27;;;;;;;8.57;3.47;;;23.60;86.50;;;;;;4979375;28;20188;-83
2023/07/24 06:22:52;;;;;;;3.93;3.43;;;24.50;1.00;;;;;;4986387;28;20203;-84
2023/07/24 06:25:18;;;;;;;3.20;2.87;;;25.30;1.00;;;;;;4993752;28;20242;-83
2023/07/24 06:27:43;;;;;;;5.33;3.30;;;26.60;1.00;;;;;;4966022;28;20291;-84
2023/07/24 06:30:09;;;;;;;4.57;3.50;;;26.00;99.90;;;;;;4978698;28;20250;-83
2023/07/24 06:32:35;;;;;;;6.40;3.53;;;25.30;99.90;;;;;;4973137;28;20638;-84
2023/07/24 06:35:00;;;;;;;7.33;3.40;;;25.00;99.90;;;;;;4974782;28;20190;-83
2023/07/24 06:37:26;;;;;;;6.23;3.60;;;24.70;99.90;;;;;;4989997;28;20585;-83
2023/07/24 06:39:51;;;;;;;4.13;2.80;;;24.30;99.90;;;;;;4985116;28;20198;-83
2023/07/24 06:42:17;;;;;;;4.60;3.87;;;24.10;99.90;;;;;;4987227;28;20213;-83
2023/07/24 06:44:42;;;;;;;8.37;3.67;;;23.80;99.90;;;;;;4977591;28;20187;-83
2023/07/24 06:47:08;;;;;;;5.93;3.63;;;23.80;99.90;;;;;;4997455;28;20587;-83
2023/07/24 06:49:33;;;;;;;5.43;3.43;;;24.00;99.90;;;;;;4986662;28;20209;-82
2023/07/24 06:51:59;;;;;;;7.20;3.50;;;24.10;99.90;;;;;;4988275;28;20195;-83
2023/07/24 06:54:24;;;;;;;6.03;3.53;;;24.10;99.90;;;;;;4997708;28;20243;-82
2023/07/24 06:56:49;;;;;;;5.43;3.43;;;24.00;99.90;;;;;;4986976;28;20230;-82
2023/07/24 06:59:15;;;;;;;4.60;3.73;;;23.80;99.90;;;;;;4982507;28;20208;-82
2023/07/24 07:01:40;;;;;;;5.27;3.40;;;23.70;99.90;;;;;;4990741;28;20215;-82
2023/07/24 07:04:06;;;;;;;7.37;4.10;;;23.40;99.90;;;;;;4996185;28;20196;-82
2023/07/24 07:06:31;;;;;;;6.20;3.63;;;23.20;1.00;;;;;;4974823;28;20263;-82
2023/07/24 07:08:57;;;;;;;4.47;3.50;;;23.00;1.00;;;;;;4972429;28;20204;-82
2023/07/24 07:11:23;;;;;;;5.27;3.37;;;22.80;1.00;;;;;;4996382;28;20775;-83
2023/07/24 07:13:48;;;;;;;6.63;3.90;;;22.60;1.00;;;;;;4982673;28;20275;-82
2023/07/24 07:16:14;;;;;;;5.20;3.30;;;22.30;1.00;;;;;;4991685;28;20199;-82
2023/07/24 07:18:39;;;;;;;5.80;3.83;;;22.00;2.00;;;;;;4996256;28;20187;-82
2023/07/24 07:21:05;;;;;;;4.43;3.87;;;21.80;99.90;;;;;;4984823;28;20189;-82
2023/07/24 07:23:30;;;;;;;5.93;3.30;;;21.70;99.90;;;;;;4972051;28;20187;-82
2023/07/24 07:25:56;;;;;;;7.50;4.00;;;21.60;99.90;;;;;;4994901;28;20222;-82
2023/07/24 07:28:21;;;;;;;9.13;3.70;;;21.60;99.90;;;;;;4979714;28;20199;-82
2023/07/24 07:30:47;;;;;;;6.77;3.20;;;21.70;99.90;;;;;;4999589;28;20643;-82
2023/07/24 07:33:12;;;;;;;4.83;3.57;;;21.90;99.90;;;;;;4990102;28;20191;-82
2023/07/24 07:35:38;;;;;;;6.37;4.13;;;22.00;99.90;;;;;;4983878;28;20176;-83
2023/07/24 07:38:03;;;;;;;5.23;3.90;;;22.30;93.00;;;;;;4998895;28;20298;-83
2023/07/24 07:40:29;;;;;;;4.40;3.97;;;22.60;1.00;;;;;;4997558;28;20212;-82
2023/07/24 07:42:55;;;;;;;5.17;3.60;;;23.10;1.00;;;;;;4996389;28;20191;-83
2023/07/24 07:45:21;;;;;;;5.43;3.73;;;23.40;1.00;;;;;;4998867;28;20219;-83
2023/07/24 07:47:47;;;;;;;6.23;3.33;;;23.30;1.00;;;;;;4995904;28;20500;-84
2023/07/24 07:50:12;;;;;;;6.60;3.30;;;23.20;99.90;;;;;;4993411;28;20477;-83
2023/07/24 07:52:38;;;;;;;4.67;3.47;;;23.30;99.90;;;;;;4988586;28;20741;-83
2023/07/24 07:55:06;;;;;;;6.93;3.70;;;23.40;99.90;;;;;;4973773;28;20192;-82
2023/07/24 07:57:33;;;;;;;6.97;3.90;;;23.50;99.90;;;;;;4975175;28;20461;-81
2023/07/24 07:59:59;;;;;;;4.40;3.30;;;23.50;99.90;;;;;;4977075;28;20445;-81
2023/07/24 08:02:24;;;;;;;4.57;3.30;;;23.30;99.90;;;;;;4996900;28;20445;-82
2023/07/24 08:04:50;;;;;;;7.10;3.73;;;23.00;99.90;;;;;;4976704;28;20194;-82
2023/07/24 08:07:15;;;;;;;8.83;3.60;;;22.80;1.00;;;;;;4981770;28;20220;-82
2023/07/24 08:09:41;;;;;;;5.27;3.63;;;22.60;1.00;;;;;;5002900;28;20584;-81
2023/07/24 08:12:07;;;;;;;7.20;3.83;;;22.50;1.00;;;;;;4992427;28;20193;-81
2023/07/24 08:14:32;;;;;;;7.00;4.30;;;22.30;1.00;;;;;;5007879;28;20194;-82
2023/07/24 08:16:58;;;;;;;5.20;3.40;;;22.30;1.00;;;;;;4980426;28;20511;-82
2023/07/24 08:19:23;;;;;;;4.67;3.40;;;22.20;1.00;;;;;;4970921;28;20243;-82
2023/07/24 08:21:49;;;;;;;5.53;3.30;;;22.10;1.00;;;;;;4986677;28;20271;-83
2023/07/24 08:24:14;;;;;;;4.03;2.93;;;22.20;1.00;;;;;;4972620;28;20190;-82
2023/07/24 08:26:40;;;;;;;8.17;3.80;;;22.20;1.00;;;;;;4987827;28;20203;-82
2023/07/24 08:29:05;;;;;;;6.00;3.60;;;22.20;1.00;;;;;;4974693;28;20636;-83
2023/07/24 08:31:31;;;;;;;5.50;3.87;;;22.50;1.00;;;;;;4993665;28;20285;-84
2023/07/24 08:33:57;;;;;;;4.03;2.73;;;24.00;1.00;;;;;;4980721;28;20192;-84
2023/07/24 08:36:22;;;;;;;4.40;3.80;;;24.20;99.90;;;;;;4981307;28;20253;-83
2023/07/24 08:38:48;;;;;;;4.47;3.50;;;23.80;99.90;;;;;;4990049;28;20190;-82
2023/07/24 08:41:14;;;;;;;5.50;3.53;;;23.40;99.90;;;;;;4996406;28;20183;-82
2023/07/24 08:43:42;;;;;;;5.17;4.13;;;23.30;99.90;;;;;;4994983;28;20192;-82
2023/07/24 08:46:09;;;;;;;5.20;3.50;;;23.10;99.90;;;;;;4967610;28;20447;-82
2023/07/24 08:48:36;;;;;;;4.77;3.77;;;23.10;1.00;;;;;;4982858;28;20434;-84
2023/07/24 08:51:16;;;;;;;4.93;3.63;;;23.10;1.00;;;;;;4989726;28;20471;-84
2023/07/24 08:53:53;;;;;;;4.00;3.60;;;23.10;1.00;;;;;;4986414;28;20483;-84
2023/07/24 08:56:19;;;;;;;5.43;3.60;;;23.10;1.00;;;;;;4981432;28;20488;-83
2023/07/24 08:58:45;;;;;;;3.97;3.43;;;23.30;99.90;;;;;;4980215;28;20457;-83
2023/07/24 09:01:17;;;;;;;4.33;3.40;;;23.30;99.90;;;;;;4974017;28;20184;-83
2023/07/24 09:03:43;;;;;;;4.00;3.13;;;23.20;99.90;;;;;;4988684;28;20508;-84
2023/07/24 09:06:08;;;;;;;4.43;3.30;;;23.10;99.90;;;;;;4976464;28;20957;-84
2023/07/24 09:08:39;;;;;;;6.93;3.13;;;23.10;99.90;;;;;;4991910;28;20173;-83
2023/07/24 09:11:06;;;;;;;4.20;3.07;;;23.50;99.90;;;;;;4971106;28;20254;-83
2023/07/24 09:13:33;;;;;;;4.30;2.70;;;24.10;99.90;;;;;;4993844;28;20433;-84
2023/07/24 09:15:59;;;;;;;4.03;3.07;;;24.70;99.90;;;;;;4975668;28;20519;-82
2023/07/24 09:18:25;;;;;;;5.93;2.90;;;25.10;99.90;;;;;;4991318;28;20447;-83
2023/07/24 09:20:51;;;;;;;6.13;3.50;;;25.50;99.90;;;;;;4977469;28;20203;-83
2023/07/24 09:23:27;;;;;;;3.27;2.97;;;26.60;99.90;;;;;;4997587;28;20743;-83
2023/07/24 09:25:52;;;;;;;2.80;2.57;;;27.20;99.90;;;;;;4992831;28;20184;-82
2023/07/24 09:28:18;;;;;;;3.00;2.70;;;27.50;99.90;;;;;;4988390;28;20999;-83
2023/07/24 09:30:57;;;;;;;5.37;3.53;;;27.30;99.90;;;;;;4975658;28;20225;-82
2023/07/24 09:36:09;;;;;;;3.00;2.53;;;26.10;99.90;;;;;;5021686;27;20828;-82
2023/07/24 09:38:35;;;;;;;4.33;3.20;;;25.60;99.90;;;;;;5000860;28;20439;-82
2023/07/24 09:41:03;;;;;;;2.90;2.60;;;25.50;99.90;;;;;;4999454;28;20510;-82
2023/07/24 09:43:29;;;;;;;9.20;3.83;;;25.50;99.90;;;;;;5000130;28;20970;-81
2023/07/24 09:45:56;;;;;;;6.97;3.13;;;25.30;99.90;;;;;;4992377;28;20438;-81
2023/07/24 09:48:24;;;;;;;5.53;2.53;;;25.20;99.90;;;;;;5007861;28;20422;-82
2023/07/24 09:50:54;;;;;;;4.10;2.80;;;25.30;99.90;;;;;;4991819;28;21062;-82
2023/07/24 09:53:32;;;;;;;3.67;2.80;;;25.60;99.90;;;;;;5021675;28;20431;-83
2023/07/24 09:56:04;;;;;;;4.17;2.60;;;25.90;99.90;;;;;;5008989;28;20504;-83
2023/07/24 09:58:30;;;;;;;7.90;3.00;;;26.20;99.90;;;;;;4999910;28;20444;-83
2023/07/24 10:00:57;;;;;;;3.10;2.57;;;26.00;99.90;;;;;;4987801;28;20936;-83
2023/07/24 10:03:22;;;;;;;9.70;3.30;;;25.80;99.90;;;;;;4992299;28;20497;-82
2023/07/24 10:05:50;;;;;;;3.20;2.30;;;25.60;99.90;;;;;;4995335;28;20455;-82
2023/07/24 10:08:16;;;;;;;3.97;3.00;;;25.30;99.90;;;;;;5004250;28;20207;-83
2023/07/24 10:10:43;;;;;;;6.80;2.33;;;25.20;99.90;;;;;;5003094;28;20438;-83
2023/07/24 10:13:10;;;;;;;3.33;2.17;;;25.30;99.90;;;;;;4999953;28;20529;-83
2023/07/24 10:15:38;;;;;;;4.33;3.10;;;25.50;99.90;;;;;;4998204;28;20458;-81
2023/07/24 10:18:08;;;;;;;2.50;2.13;;;25.60;99.90;;;;;;4999530;28;20455;-81
2023/07/24 10:20:39;;;;;;;3.03;2.50;;;25.60;99.90;;;;;;5021481;28;20434;-82
2023/07/24 10:23:07;;;;;;;4.10;2.20;;;25.80;99.90;;;;;;4991299;28;20470;-81
2023/07/24 10:25:34;;;;;;;2.40;2.20;;;25.90;99.90;;;;;;5012567;28;20935;-82
2023/07/24 10:28:07;;;;;;;4.43;2.47;;;26.20;99.90;;;;;;4996753;28;20470;-82
2023/07/24 10:30:36;;;;;;;2.47;2.10;;;26.30;99.90;;;;;;4989809;28;20443;-81
2023/07/24 10:33:06;;;;;;;3.30;2.23;;;26.40;99.90;;;;;;4996658;28;20446;-82
2023/07/24 10:35:39;;;;;;;3.73;2.80;;;26.50;99.90;;;;;;4998430;28;20470;-82
2023/07/24 10:38:04;;;;;;;3.53;2.63;;;26.50;99.90;;;;;;4995271;28;20451;-81
2023/07/24 10:40:30;;;;;;;3.80;2.80;;;26.70;99.90;;;;;;4997287;28;20811;-82
2023/07/24 10:43:10;;;;;;;4.57;2.83;;;26.80;99.90;;;;;;4997763;28;20662;-82
2023/07/24 10:45:48;;;;;;;2.60;2.30;;;27.80;99.90;;;;;;4998834;28;20437;-82
2023/07/24 10:48:15;;;;;;;3.00;2.40;;;28.80;99.90;;;;;;4983189;28;20886;-82
2023/07/24 10:50:42;;;;;;;2.83;2.50;;;28.40;99.90;;;;;;4977274;28;20451;-82
2023/07/24 10:53:09;;;;;;;3.27;2.20;;;27.80;99.90;;;;;;4983942;28;20419;-82
2023/07/24 10:55:35;;;;;;;4.23;2.67;;;27.00;99.90;;;;;;4983908;28;20471;-82
2023/07/24 10:58:00;;;;;;;5.60;3.20;;;26.30;99.90;;;;;;4985907;28;20475;-82
2023/07/24 11:00:27;;;;;;;3.80;2.90;;;25.80;99.90;;;;;;5036928;28;20259;-83
2023/07/24 11:02:54;;;;;;;4.93;3.40;;;25.10;99.90;;;;;;4985553;28;20184;-81
2023/07/24 11:05:23;;;;;;;6.17;3.40;;;24.50;99.90;;;;;;4992102;28;20856;-81
2023/07/24 11:07:49;;;;;;;10.53;4.00;;;24.10;99.90;;;;;;4994164;28;20460;-83
2023/07/24 11:10:16;;;;;;;6.67;4.17;;;23.70;1.00;;;;;;5026028;28;20430;-83
2023/07/24 11:12:41;;;;;;;6.13;4.47;;;23.00;99.90;;;;;;4982487;28;20432;-82
2023/07/24 11:15:07;;;;;;;6.70;5.27;;;22.50;99.90;;;;;;4980938;28;20468;-82
2023/07/24 11:17:40;;;;;;;4.20;2.90;;;22.00;1.00;;;;;;5053595;28;20203;-83
2023/07/24 11:20:13;;;;;;;10.43;3.77;;;21.60;99.90;;;;;;4980368;28;20446;-83
2023/07/24 11:22:40;;;;;;;6.40;4.23;;;21.30;1.00;;;;;;4980712;28;20451;-83
2023/07/24 11:25:06;;;;;;;5.40;3.80;;;21.20;99.90;;;;;;5020120;28;20961;-83
2023/07/24 11:27:32;;;;;;;4.93;4.03;;;21.10;99.90;;;;;;5004474;28;20569;-83
2023/07/24 11:29:58;;;;;;;7.27;3.60;;;21.20;99.90;;;;;;4980450;28;20434;-83
2023/07/24 11:32:24;;;;;;;3.50;3.20;;;21.40;99.90;;;;;;4977310;28;20452;-83
2023/07/24 11:34:51;;;;;;;3.03;2.10;;;21.70;99.90;;;;;;4979471;28;20218;-83
2023/07/24 11:37:20;;;;;;;3.13;2.60;;;21.60;1.00;;;;;;4977879;28;20219;-83
2023/07/24 11:39:57;;;;;;;3.27;2.00;;;21.50;1.00;;;;;;4984764;28;20443;-84
2023/07/24 11:42:27;;;;;;;2.27;1.70;;;21.40;1.00;;;;;;4976947;28;20414;-83
2023/07/24 11:44:53;;;;;;;3.10;1.93;;;21.70;1.00;;;;;;4976106;28;20435;-83
2023/07/24 11:47:19;;;;;;;2.63;2.10;;;21.80;1.00;;;;;;4978308;28;20672;-83
2023/07/24 11:49:55;;;;;;;2.60;1.30;;;21.70;1.00;;;;;;4981287;28;20446;-83
2023/07/24 11:52:20;;;;;;;2.60;1.60;;;21.60;99.90;;;;;;4978108;28;20604;-83
2023/07/24 11:55:00;;;;;;;2.17;1.33;;;21.60;99.90;;;;;;4977265;28;20477;-82
2023/07/24 11:57:27;;;;;;;2.27;1.50;;;21.60;91.80;;;;;;4974805;28;20212;-82
2023/07/24 11:59:53;;;;;;;3.10;1.40;;;21.70;83.80;;;;;;4977826;28;20450;-82
2023/07/24 12:02:19;;;;;;;3.73;1.40;;;21.80;99.90;;;;;;4972324;28;20442;-83
2023/07/24 12:04:44;;;;;;;13.40;2.50;;;22.00;99.90;;;;;;4976057;28;20475;-83
2023/07/24 12:07:10;;;;;;;2.30;1.70;;;22.30;99.90;;;;;;4976011;28;20212;-82
2023/07/24 12:09:35;;;;;;;4.70;2.10;;;22.30;99.90;;;;;;4976113;28;20296;-84
2023/07/24 12:12:03;;;;;;;3.10;1.93;;;23.50;1.00;;;;;;4974141;28;20299;-83
2023/07/24 12:14:28;;;;;;;2.40;1.40;;;24.40;99.90;;;;;;4974091;28;20219;-82
2023/07/24 12:17:01;;;;;;;2.20;1.80;;;25.50;1.00;;;;;;4975149;28;20455;-81
2023/07/24 12:19:27;;;;;;;2.07;1.80;;;26.40;99.90;;;;;;4968457;28;20254;-84
2023/07/24 12:21:52;;;;;;;3.00;1.93;;;27.20;99.90;;;;;;4973119;28;20443;-84
2023/07/24 12:24:18;;;;;;;1.57;1.27;;;28.00;99.90;;;;;;4975716;28;20180;-83
2023/07/24 12:26:43;;;;;;;2.20;1.50;;;28.80;99.90;;;;;;4974351;28;20217;-84
2023/07/24 12:29:09;;;;;;;1.60;1.10;;;29.40;99.90;;;;;;4972215;28;20578;-83
2023/07/24 12:31:34;;;;;;;1.63;1.40;;;29.80;99.90;;;;;;4976158;28;20192;-84
2023/07/24 12:34:00;;;;;;;4.13;1.90;;;30.30;99.90;;;;;;4969358;28;20768;-83
2023/07/24 12:36:25;;;;;;;3.23;1.80;;;30.70;99.90;;;;;;4992290;28;20201;-83
2023/07/24 12:38:51;;;;;;;2.43;1.40;;;31.00;99.90;;;;;;4975532;28;20602;-83
2023/07/24 12:41:16;;;;;;;2.67;1.00;;;31.20;99.90;;;;;;4978045;28;20188;-84
2023/07/24 12:43:43;;;;;;;1.80;1.10;;;30.70;99.90;;;;;;4975127;28;20262;-83
2023/07/24 12:46:09;;;;;;;1.60;1.20;;;29.80;99.90;;;;;;4976124;28;20490;-84
2023/07/24 12:48:35;;;;;;;1.80;1.20;;;29.00;99.90;;;;;;4974887;28;20483;-83